Time;durP1;ratioP1;P1;durP2;ratioP2;P2;SDS_P1;SDS_P2;PMS_P1;PMS_P2;Temp;Humidity;BMP_temperature;BMP_pressure;BME280_temperature;BME280_humidity;BME280_pressure;Samples;Min_cycle;Max_cycle;Signal;HPM_P1;HPM_P2
2021/01/28 00:00:38;;;;;;;6.50;3.63;;;2.60;99.90;;;;;;4950538;29;19922;-78
2021/01/28 00:03:08;;;;;;;9.03;4.00;;;2.60;99.90;;;;;;4967556;29;20070;-78
2021/01/28 00:05:42;;;;;;;5.27;2.83;;;2.60;99.90;;;;;;4951510;29;20066;-77
2021/01/28 00:08:13;;;;;;;7.47;4.47;;;2.70;99.90;;;;;;4966809;29;20419;-78
2021/01/28 00:10:42;;;;;;;5.38;2.88;;;2.70;99.90;;;;;;4965611;29;20059;-79
2021/01/28 00:13:11;;;;;;;5.22;2.75;;;2.70;99.90;;;;;;4964574;28;20063;-78
2021/01/28 00:15:39;;;;;;;6.30;3.60;;;2.70;99.90;;;;;;4947501;29;20059;-77
2021/01/28 00:18:08;;;;;;;;;;;2.70;99.90;;;;;;4949865;29;20055;-78
2021/01/28 00:20:37;;;;;;;5.37;3.23;;;2.70;99.90;;;;;;4965791;28;19922;-77
2021/01/28 00:23:06;;;;;;;5.87;3.40;;;2.80;99.90;;;;;;4965101;29;20051;-79
2021/01/28 00:25:34;;;;;;;7.57;4.03;;;2.80;99.90;;;;;;4949923;29;20053;-78
2021/01/28 00:28:09;;;;;;;6.37;3.50;;;2.80;99.90;;;;;;4962865;29;20066;-78
2021/01/28 00:30:41;;;;;;;5.10;3.33;;;2.80;99.90;;;;;;4964219;28;20478;-78
2021/01/28 00:33:11;;;;;;;5.90;3.47;;;2.80;99.90;;;;;;4947229;29;20055;-77
2021/01/28 00:35:41;;;;;;;8.10;3.33;;;2.90;99.90;;;;;;4961401;29;20062;-77
2021/01/28 00:38:16;;;;;;;6.47;3.17;;;2.90;99.90;;;;;;4964225;28;20051;-79
2021/01/28 00:40:44;;;;;;;7.27;3.43;;;2.90;99.90;;;;;;4965499;28;20059;-77
2021/01/28 00:43:15;;;;;;;6.80;3.60;;;2.90;99.90;;;;;;4965066;29;20059;-78
2021/01/28 00:45:43;;;;;;;5.30;3.10;;;2.90;99.90;;;;;;4967331;28;19948;-78
2021/01/28 00:48:12;;;;;;;5.97;3.17;;;3.00;99.90;;;;;;4965752;29;20074;-77
2021/01/28 00:50:41;;;;;;;6.43;3.37;;;3.00;99.90;;;;;;4965339;28;20471;-78
2021/01/28 00:53:10;;;;;;;6.88;3.30;;;3.00;99.90;;;;;;4945909;29;20055;-78
2021/01/28 00:55:38;;;;;;;6.50;2.87;;;3.00;99.90;;;;;;4963323;28;20055;-77
2021/01/28 00:58:15;;;;;;;7.03;3.57;;;3.00;99.90;;;;;;4963405;28;20078;-78
2021/01/28 01:00:44;;;;;;;6.10;3.40;;;3.00;99.90;;;;;;4962046;29;20062;-78
2021/01/28 01:03:15;;;;;;;6.07;3.70;;;3.10;99.90;;;;;;4945000;29;20479;-78
2021/01/28 01:05:43;;;;;;;9.30;3.67;;;3.10;99.90;;;;;;4945627;29;20062;-77
2021/01/28 01:08:15;;;;;;;5.30;3.17;;;3.10;99.90;;;;;;4946754;29;20055;-78
2021/01/28 01:10:45;;;;;;;6.30;3.87;;;3.10;99.90;;;;;;4961401;29;20051;-78
2021/01/28 01:13:18;;;;;;;6.37;3.60;;;3.10;99.90;;;;;;4959150;29;20051;-78
2021/01/28 01:15:46;;;;;;;5.80;3.60;;;3.10;99.90;;;;;;4943578;29;20078;-78
2021/01/28 01:18:18;;;;;;;5.80;3.30;;;3.20;99.90;;;;;;4958145;29;20118;-77
2021/01/28 01:20:47;;;;;;;6.73;3.57;;;3.20;99.90;;;;;;4957772;29;20070;-78
2021/01/28 01:23:21;;;;;;;6.60;4.00;;;3.20;99.90;;;;;;4941653;29;20055;-77
2021/01/28 01:26:04;;;;;;;6.80;3.60;;;3.30;99.90;;;;;;4957108;29;20387;-78
2021/01/28 01:28:34;;;;;;;6.50;3.33;;;3.30;99.90;;;;;;4941464;29;20051;-78
2021/01/28 01:31:10;;;;;;;3.90;2.27;;;3.30;99.90;;;;;;4941264;29;20112;-78
2021/01/28 01:33:39;;;;;;;6.38;3.58;;;3.30;99.90;;;;;;4957298;29;20399;-78
2021/01/28 01:36:12;;;;;;;5.93;3.37;;;3.30;99.90;;;;;;4942070;29;20452;-77
2021/01/28 01:38:48;;;;;;;5.33;3.07;;;3.30;99.90;;;;;;4957947;29;20074;-78
2021/01/28 01:41:20;;;;;;;6.77;3.60;;;3.30;99.90;;;;;;4926465;29;20387;-77
2021/01/28 01:43:58;;;;;;;5.30;3.20;;;3.30;99.90;;;;;;4957927;28;20475;-77
2021/01/28 01:46:26;;;;;;;5.67;2.53;;;3.40;99.90;;;;;;4957343;29;20062;-77
2021/01/28 01:48:59;;;;;;;4.70;2.60;;;3.40;99.90;;;;;;4957262;28;20055;-77
2021/01/28 01:51:32;;;;;;;5.37;2.57;;;3.30;99.90;;;;;;4961170;28;20066;-77
2021/01/28 01:54:09;;;;;;;5.77;3.10;;;3.40;99.90;;;;;;4947440;29;20051;-78
2021/01/28 01:56:48;;;;;;;4.13;2.08;;;3.40;99.90;;;;;;4945489;29;20066;-77
2021/01/28 01:59:21;;;;;;;5.97;3.33;;;3.40;99.90;;;;;;4945355;29;20068;-79
2021/01/28 02:01:59;;;;;;;5.13;2.70;;;3.40;99.90;;;;;;4958728;28;20055;-77
2021/01/28 02:04:48;;;;;;;4.37;2.47;;;3.40;99.90;;;;;;4955726;29;20047;-77
2021/01/28 02:07:37;;;;;;;2.80;1.53;;;3.40;99.90;;;;;;4956220;28;20643;-76
2021/01/28 02:10:23;;;;;;;5.30;3.10;;;3.40;99.90;;;;;;4955262;29;20483;-77
2021/01/28 02:13:13;;;;;;;6.60;3.77;;;3.40;99.90;;;;;;4950852;29;20171;-76
2021/01/28 02:15:51;;;;;;;6.63;2.80;;;3.40;99.90;;;;;;4939751;29;20058;-77
2021/01/28 02:18:20;;;;;;;6.73;2.90;;;3.30;99.90;;;;;;4955234;29;20051;-77
2021/01/28 02:21:26;;;;;;;2.23;1.40;;;3.30;99.90;;;;;;4940426;29;20047;-76
2021/01/28 02:24:34;;;;;;;3.40;1.67;;;3.20;99.90;;;;;;4941022;29;20406;-78
2021/01/28 02:27:07;;;;;;;6.07;3.40;;;3.20;99.90;;;;;;4957918;28;20059;-78
2021/01/28 02:29:59;;;;;;;4.40;2.53;;;3.20;99.90;;;;;;4958342;28;20387;-77
2021/01/28 02:32:28;;;;;;;4.17;1.87;;;3.30;99.90;;;;;;4963477;29;20069;-76
2021/01/28 02:35:17;;;;;;;5.23;2.40;;;3.30;99.90;;;;;;4962049;28;20056;-77
2021/01/28 02:37:46;;;;;;;5.30;3.13;;;3.20;99.90;;;;;;4942165;29;20062;-77
2021/01/28 02:40:22;;;;;;;5.77;3.20;;;3.20;99.90;;;;;;4956399;29;20055;-78
2021/01/28 02:43:09;;;;;;;5.90;3.00;;;3.10;99.90;;;;;;4960445;28;20059;-77
2021/01/28 02:46:04;;;;;;;4.27;2.10;;;3.10;99.90;;;;;;4963415;29;20043;-78
2021/01/28 02:48:48;;;;;;;4.67;2.30;;;3.10;99.90;;;;;;4949712;29;20047;-77
2021/01/28 02:51:26;;;;;;;2.93;1.67;;;3.10;99.90;;;;;;4968555;28;20059;-78
2021/01/28 02:53:56;;;;;;;5.13;2.60;;;3.10;99.90;;;;;;4952541;29;20051;-78
2021/01/28 02:56:26;;;;;;;4.47;2.72;;;3.10;99.90;;;;;;4952028;29;20066;-78
2021/01/28 02:58:59;;;;;;;1.47;0.53;;;3.10;99.90;;;;;;4966122;29;20062;-78
2021/01/28 03:01:31;;;;;;;5.10;2.70;;;3.20;99.90;;;;;;4952148;29;20051;-77
2021/01/28 03:04:00;;;;;;;3.73;2.20;;;3.10;99.90;;;;;;4967456;28;20063;-77
2021/01/28 03:06:27;;;;;;;6.23;3.07;;;3.10;99.90;;;;;;4968918;29;20051;-78
2021/01/28 03:08:58;;;;;;;5.10;2.43;;;3.10;99.90;;;;;;4968923;28;20051;-78
2021/01/28 03:11:41;;;;;;;3.97;1.93;;;3.10;99.90;;;;;;4966400;29;20051;-78
2021/01/28 03:14:15;;;;;;;5.13;2.60;;;3.20;99.90;;;;;;4967587;29;20059;-78
2021/01/28 03:16:53;;;;;;;6.00;3.07;;;3.20;99.90;;;;;;4968075;29;20063;-79
2021/01/28 03:19:32;;;;;;;3.67;1.60;;;3.20;99.90;;;;;;4967385;28;20051;-77
2021/01/28 03:22:11;;;;;;;6.10;3.17;;;3.20;99.90;;;;;;4946563;29;20055;-78
2021/01/28 03:24:42;;;;;;;4.30;2.40;;;3.20;99.90;;;;;;4960490;29;20059;-77
2021/01/28 03:27:18;;;;;;;3.63;2.00;;;3.30;99.90;;;;;;4960629;29;20522;-77
2021/01/28 03:29:50;;;;;;;5.00;2.90;;;3.20;99.90;;;;;;4960582;28;20136;-76
2021/01/28 03:32:20;;;;;;;6.73;3.20;;;3.20;99.90;;;;;;4965575;28;20077;-77
2021/01/28 03:34:51;;;;;;;4.40;2.30;;;3.30;99.90;;;;;;4948877;29;20058;-77
2021/01/28 03:37:19;;;;;;;5.68;2.70;;;3.30;99.90;;;;;;4946622;29;20051;-76
2021/01/28 03:39:53;;;;;;;5.03;2.73;;;3.30;99.90;;;;;;4962294;29;20063;-77
2021/01/28 03:42:21;;;;;;;5.33;2.53;;;3.40;99.90;;;;;;4947582;29;20051;-78
2021/01/28 03:44:50;;;;;;;5.87;2.97;;;3.40;99.90;;;;;;4967262;28;20523;-78
2021/01/28 03:47:20;;;;;;;6.00;2.90;;;3.40;99.90;;;;;;4966841;29;20062;-77
2021/01/28 03:50:12;;;;;;;5.22;2.88;;;3.40;99.90;;;;;;4949112;29;20233;-78
2021/01/28 03:52:46;;;;;;;6.07;3.13;;;3.40;99.90;;;;;;4960891;28;20055;-78
2021/01/28 03:55:27;;;;;;;4.53;2.67;;;3.50;99.90;;;;;;4960985;29;20071;-77
2021/01/28 03:57:55;;;;;;;5.10;3.00;;;3.50;99.90;;;;;;4947123;29;20051;-77
2021/01/28 04:00:28;;;;;;;6.23;3.17;;;3.50;99.90;;;;;;4964211;28;20058;-77
2021/01/28 04:03:18;;;;;;;4.37;2.80;;;3.50;99.90;;;;;;4946876;29;20055;-77
2021/01/28 04:06:07;;;;;;;5.33;3.20;;;3.50;99.90;;;;;;4960596;28;20380;-77
2021/01/28 04:08:54;;;;;;;5.70;3.00;;;3.50;99.90;;;;;;4960909;29;20047;-77
2021/01/28 04:11:45;;;;;;;4.57;2.27;;;3.50;99.90;;;;;;4961086;29;20055;-78
2021/01/28 04:14:42;;;;;;;5.30;2.78;;;3.50;99.90;;;;;;4960207;29;20081;-78
2021/01/28 04:17:30;;;;;;;4.80;2.77;;;3.50;99.90;;;;;;4960601;29;20070;-77
2021/01/28 04:20:14;;;;;;;4.60;2.73;;;3.50;99.90;;;;;;4961647;28;20387;-77
2021/01/28 04:22:43;;;;;;;4.77;2.90;;;3.50;99.90;;;;;;4928445;29;20051;-78
2021/01/28 04:25:17;;;;;;;7.40;3.40;;;3.50;99.90;;;;;;4942930;29;20036;-77
2021/01/28 04:27:46;;;;;;;5.27;2.97;;;3.50;99.90;;;;;;4969517;28;20051;-78
2021/01/28 04:30:25;;;;;;;4.10;2.77;;;3.50;99.90;;;;;;4961942;28;20058;-77
2021/01/28 04:33:01;;;;;;;5.13;2.87;;;3.50;99.90;;;;;;4930881;29;20055;-78
2021/01/28 04:35:48;;;;;;;3.80;2.17;;;3.50;99.90;;;;;;4962009;28;20047;-77
2021/01/28 04:38:15;;;;;;;5.72;2.72;;;3.60;99.90;;;;;;4943305;29;20125;-78
2021/01/28 04:40:52;;;;;;;5.83;3.23;;;3.50;99.90;;;;;;4943710;29;20059;-77
2021/01/28 04:43:29;;;;;;;6.87;3.63;;;3.50;99.90;;;;;;4960475;28;20078;-78
2021/01/28 04:46:26;;;;;;;4.28;2.05;;;3.50;99.90;;;;;;4956201;29;20051;-78
2021/01/28 04:49:12;;;;;;;5.10;2.70;;;3.50;99.90;;;;;;4947327;29;20059;-77
2021/01/28 04:52:02;;;;;;;4.50;2.50;;;3.50;99.90;;;;;;4965262;28;20156;-78
2021/01/28 04:54:35;;;;;;;4.87;2.57;;;3.50;99.90;;;;;;4952417;29;20066;-78
2021/01/28 04:57:12;;;;;;;5.00;2.53;;;3.50;99.90;;;;;;4968560;29;20063;-77
2021/01/28 04:59:50;;;;;;;4.73;2.67;;;3.50;99.90;;;;;;4969020;29;20055;-77
2021/01/28 05:02:21;;;;;;;3.90;2.37;;;3.60;99.90;;;;;;4967915;29;20055;-78
2021/01/28 05:05:17;;;;;;;3.70;2.27;;;3.60;99.90;;;;;;4956605;28;20051;-78
2021/01/28 05:08:05;;;;;;;4.83;2.37;;;3.60;99.90;;;;;;4936182;28;20463;-77
2021/01/28 05:10:55;;;;;;;4.20;2.13;;;3.60;99.90;;;;;;4965470;29;20380;-77
2021/01/28 05:13:46;;;;;;;6.70;3.03;;;3.50;99.90;;;;;;4954119;29;20059;-76
2021/01/28 05:16:51;;;;;;;5.30;2.50;;;3.60;99.90;;;;;;4964765;29;20066;-80
2021/01/28 05:19:44;;;;;;;5.37;2.63;;;3.50;99.90;;;;;;4935585;29;20062;-78
2021/01/28 05:22:30;;;;;;;6.13;2.57;;;3.50;99.90;;;;;;4959795;29;20055;-78
2021/01/28 05:25:30;;;;;;;4.60;2.50;;;3.60;99.90;;;;;;4945365;29;20055;-78
2021/01/28 05:28:26;;;;;;;4.10;1.87;;;3.60;99.90;;;;;;4953005;29;20051;-78
2021/01/28 05:31:17;;;;;;;5.07;2.63;;;3.60;99.90;;;;;;4964617;29;20062;-77
2021/01/28 05:33:45;;;;;;;6.33;2.83;;;3.60;99.90;;;;;;4950404;29;20059;-76
2021/01/28 05:36:42;;;;;;;5.67;2.60;;;3.60;99.90;;;;;;4954534;28;20055;-77
2021/01/28 05:39:36;;;;;;;6.77;2.87;;;3.70;99.90;;;;;;4966405;28;20059;-77
2021/01/28 05:42:19;;;;;;;6.47;3.17;;;3.70;99.90;;;;;;4948859;29;20051;-77
2021/01/28 05:44:47;;;;;;;8.73;3.40;;;3.70;99.90;;;;;;4949387;29;20055;-77
2021/01/28 05:47:25;;;;;;;7.63;3.92;;;3.70;99.90;;;;;;4965616;29;20066;-78
2021/01/28 05:50:20;;;;;;;6.83;3.77;;;3.70;99.90;;;;;;4944492;29;20066;-77
2021/01/28 05:52:49;;;;;;;;;;;3.70;99.90;;;;;;4965060;28;20070;-77
2021/01/28 05:55:30;;;;;;;5.90;2.80;;;3.80;99.90;;;;;;4950338;29;19922;-78
2021/01/28 05:58:23;;;;;;;5.87;2.90;;;3.80;99.90;;;;;;4965593;29;20066;-77
2021/01/28 06:00:56;;;;;;;;;;;3.80;99.90;;;;;;4949024;29;20066;-78
2021/01/28 06:03:53;;;;;;;7.13;3.43;;;3.80;99.90;;;;;;4995522;28;19923;-78
2021/01/28 06:07:00;;;;;;;5.23;3.10;;;3.80;99.90;;;;;;4965452;28;20055;-78
2021/01/28 06:10:41;;;;;;;4.90;1.97;;;3.70;99.90;;;;;;4967791;28;20467;-78
2021/01/28 06:14:04;;;;;;;5.83;2.77;;;3.80;99.90;;;;;;4941077;29;20051;-79
2021/01/28 06:17:24;;;;;;;2.57;1.47;;;3.80;99.90;;;;;;4928673;29;20164;-79
2021/01/28 06:20:24;;;;;;;7.73;3.03;;;3.80;99.90;;;;;;4964917;29;20062;-78
2021/01/28 06:23:13;;;;;;;6.63;3.20;;;3.80;99.90;;;;;;4949823;29;20062;-78
2021/01/28 06:26:20;;;;;;;4.82;2.58;;;3.80;99.90;;;;;;4965188;29;20047;-78
2021/01/28 06:29:26;;;;;;;3.45;1.55;;;3.80;99.90;;;;;;4960184;28;20091;-78
2021/01/28 06:32:25;;;;;;;2.67;1.37;;;3.80;99.90;;;;;;4961215;29;20059;-78
2021/01/28 06:35:17;;;;;;;;;;;3.80;99.90;;;;;;4955657;28;20489;-78
2021/01/28 06:38:19;;;;;;;4.20;1.90;;;3.80;99.90;;;;;;4959148;29;20334;-78
2021/01/28 06:41:12;;;;;;;5.43;2.70;;;3.90;99.90;;;;;;4957127;29;20074;-78
2021/01/28 06:44:05;;;;;;;5.33;3.13;;;3.90;99.90;;;;;;4957888;29;20059;-78
2021/01/28 06:47:00;;;;;;;6.97;3.10;;;3.90;99.90;;;;;;4939005;29;20066;-78
2021/01/28 06:50:05;;;;;;;6.83;3.13;;;3.90;99.90;;;;;;4954699;29;20082;-79
2021/01/28 06:52:57;;;;;;;6.43;3.50;;;3.90;99.90;;;;;;4956797;29;20051;-77
2021/01/28 06:55:51;;;;;;;6.83;3.17;;;3.90;99.90;;;;;;4947173;28;20054;-78
2021/01/28 06:58:55;;;;;;;5.20;2.47;;;3.90;99.90;;;;;;4964231;28;20434;-80
2021/01/28 07:01:50;;;;;;;5.07;2.67;;;3.90;99.90;;;;;;4969453;28;20048;-84
2021/01/28 07:04:51;;;;;;;6.47;3.10;;;3.90;99.90;;;;;;4972598;28;20054;-82
2021/01/28 07:07:37;;;;;;;4.33;2.10;;;3.90;99.90;;;;;;4942553;29;20051;-77
2021/01/28 07:10:29;;;;;;;4.97;2.77;;;3.90;99.90;;;;;;4960649;29;20059;-77
2021/01/28 07:13:20;;;;;;;6.50;2.80;;;3.90;99.90;;;;;;4958633;29;20051;-78
2021/01/28 07:16:33;;;;;;;8.27;3.50;;;3.80;99.90;;;;;;4951557;29;20063;-77
2021/01/28 07:19:10;;;;;;;7.23;3.60;;;3.80;99.90;;;;;;4958927;28;20055;-78
2021/01/28 07:21:40;;;;;;;5.57;2.67;;;3.80;99.90;;;;;;4942815;29;20051;-76
2021/01/28 07:24:33;;;;;;;8.43;3.53;;;3.90;99.90;;;;;;4957875;29;20059;-78
2021/01/28 07:27:04;;;;;;;7.60;3.57;;;3.80;99.90;;;;;;4958281;29;20055;-77
2021/01/28 07:29:55;;;;;;;7.83;3.47;;;3.80;99.90;;;;;;4948497;29;20055;-77
2021/01/28 07:32:51;;;;;;;9.83;3.73;;;3.80;99.90;;;;;;4964221;29;20376;-77
2021/01/28 07:35:56;;;;;;;6.80;3.07;;;3.80;99.90;;;;;;4890573;29;20134;-79
2021/01/28 07:38:54;;;;;;;7.57;3.70;;;3.90;99.90;;;;;;4957069;28;20090;-79
2021/01/28 07:41:53;;;;;;;9.70;3.58;;;3.80;99.90;;;;;;4964900;29;20059;-77
2021/01/28 07:44:50;;;;;;;9.67;3.80;;;3.90;99.90;;;;;;4962520;28;20055;-77
2021/01/28 07:47:49;;;;;;;9.10;4.13;;;3.80;99.90;;;;;;4959447;29;20055;-78
2021/01/28 07:50:32;;;;;;;6.93;3.27;;;3.80;99.90;;;;;;4960582;29;20062;-77
2021/01/28 07:53:37;;;;;;;11.53;3.50;;;3.80;99.90;;;;;;4944869;29;20062;-76
2021/01/28 07:56:26;;;;;;;11.57;4.10;;;3.80;99.90;;;;;;4960557;28;20043;-77
2021/01/28 07:58:54;;;;;;;;;;;3.70;99.90;;;;;;4960106;28;20070;-78
2021/01/28 08:01:21;;;;;;;9.23;3.60;;;3.70;99.90;;;;;;4961660;29;20013;-80
2021/01/28 08:04:04;;;;;;;10.57;3.90;;;3.70;99.90;;;;;;4965275;29;20059;-82
2021/01/28 08:06:34;;;;;;;8.30;4.10;;;3.70;99.90;;;;;;4954203;29;20376;-79
2021/01/28 08:09:06;;;;;;;9.40;3.70;;;3.70;99.90;;;;;;4970538;29;20047;-82
2021/01/28 08:11:37;;;;;;;7.83;4.40;;;3.70;99.90;;;;;;4951724;28;20051;-79
2021/01/28 08:14:13;;;;;;;7.30;4.18;;;3.60;99.90;;;;;;4944822;29;20051;-80
2021/01/28 08:16:48;;;;;;;10.60;4.83;;;3.40;99.90;;;;;;4945279;29;20066;-77
2021/01/28 08:19:25;;;;;;;11.53;4.27;;;3.40;99.90;;;;;;4958465;29;20059;-77
2021/01/28 08:22:12;;;;;;;10.67;4.40;;;3.50;99.90;;;;;;4941779;29;20427;-79
2021/01/28 08:24:42;;;;;;;9.00;3.93;;;3.60;99.90;;;;;;4956719;28;20055;-77
2021/01/28 08:27:18;;;;;;;8.75;3.92;;;3.60;99.90;;;;;;4931262;29;20047;-82
2021/01/28 08:30:03;;;;;;;13.25;4.32;;;3.70;99.90;;;;;;4943847;29;20047;-82
2021/01/28 08:32:35;;;;;;;10.30;5.10;;;3.70;99.90;;;;;;4949102;29;20062;-79
2021/01/28 08:35:06;;;;;;;12.77;4.43;;;3.70;99.90;;;;;;4950871;29;20411;-78
2021/01/28 08:37:35;;;;;;;12.20;6.10;;;3.80;99.90;;;;;;4949068;29;20383;-77
2021/01/28 08:40:06;;;;;;;10.97;4.60;;;3.80;99.90;;;;;;4962383;28;20376;-77
2021/01/28 08:42:34;;;;;;;11.30;3.97;;;3.80;99.90;;;;;;4962622;28;20054;-78
2021/01/28 08:45:11;;;;;;;8.13;3.83;;;3.90;99.90;;;;;;4949780;29;20051;-77
2021/01/28 08:47:41;;;;;;;6.73;3.80;;;3.90;99.90;;;;;;4968121;29;20062;-79
2021/01/28 08:50:15;;;;;;;8.77;4.03;;;3.90;99.90;;;;;;4949552;29;20078;-79
2021/01/28 08:52:46;;;;;;;10.70;4.47;;;3.90;99.90;;;;;;4950881;29;20057;-78
2021/01/28 08:55:19;;;;;;;;;;;3.90;99.90;;;;;;4949764;29;20050;-78
2021/01/28 08:57:47;;;;;;;9.07;3.63;;;3.90;99.90;;;;;;4948433;29;19926;-77
2021/01/28 09:00:22;;;;;;;17.95;4.47;;;3.90;99.90;;;;;;4963289;29;20051;-76
2021/01/28 09:02:52;;;;;;;9.30;3.40;;;3.90;99.90;;;;;;4945888;29;20055;-77
2021/01/28 09:05:25;;;;;;;13.87;4.63;;;3.90;99.90;;;;;;4945900;29;20565;-78
2021/01/28 09:07:55;;;;;;;11.60;3.93;;;3.90;99.90;;;;;;4943606;29;20066;-78
2021/01/28 09:13:40;;;;;;;9.30;4.23;;;3.90;99.90;;;;;;4958696;28;20058;-80
2021/01/28 09:16:12;;;;;;;11.83;4.90;;;3.90;99.90;;;;;;4941625;29;20503;-76
2021/01/28 09:18:53;;;;;;;13.10;4.23;;;3.90;99.90;;;;;;4957780;28;20391;-78
2021/01/28 09:21:24;;;;;;;9.90;4.50;;;4.00;99.90;;;;;;4957100;29;20058;-81
2021/01/28 09:23:58;;;;;;;12.10;4.13;;;4.00;99.90;;;;;;4939562;29;20463;-78
2021/01/28 09:26:31;;;;;;;14.50;5.90;;;4.10;99.90;;;;;;4958909;28;20055;-77
2021/01/28 09:29:08;;;;;;;19.03;4.07;;;4.10;99.90;;;;;;4958846;29;20051;-78
2021/01/28 09:31:38;;;;;;;10.67;4.17;;;4.10;99.90;;;;;;4957218;28;20055;-78
2021/01/28 09:34:14;;;;;;;10.67;4.10;;;4.00;99.90;;;;;;4941612;29;20047;-80
2021/01/28 09:36:43;;;;;;;7.38;3.50;;;4.10;99.90;;;;;;4958325;28;20062;-77
2021/01/28 09:39:21;;;;;;;7.68;3.53;;;4.10;99.90;;;;;;4955390;29;20047;-78
2021/01/28 09:41:50;;;;;;;8.47;4.63;;;4.10;99.90;;;;;;4943313;29;20488;-77
2021/01/28 09:44:32;;;;;;;10.83;3.60;;;4.00;99.90;;;;;;4959712;29;20106;-78
2021/01/28 09:47:26;;;;;;;11.70;4.17;;;4.00;99.90;;;;;;4974222;28;20459;-80
2021/01/28 09:49:55;;;;;;;7.50;3.80;;;4.10;99.90;;;;;;4957809;29;20066;-78
2021/01/28 09:52:30;;;;;;;13.97;3.93;;;4.10;99.90;;;;;;4957151;28;20047;-77
2021/01/28 09:54:59;;;;;;;11.20;3.80;;;4.20;99.90;;;;;;4956735;29;20055;-78
2021/01/28 09:57:29;;;;;;;12.87;4.07;;;4.20;99.90;;;;;;4954413;29;20054;-77
2021/01/28 09:59:57;;;;;;;12.90;5.10;;;4.20;99.90;;;;;;4942455;28;20498;-80
2021/01/28 10:02:36;;;;;;;8.63;3.88;;;4.20;99.90;;;;;;4942433;29;20047;-77
2021/01/28 10:05:05;;;;;;;9.65;3.53;;;4.20;99.90;;;;;;4943779;29;20054;-78
2021/01/28 10:07:32;;;;;;;8.80;4.32;;;4.20;99.90;;;;;;4960787;29;20047;-78
2021/01/28 10:10:04;;;;;;;10.60;4.33;;;4.20;99.90;;;;;;4945233;29;20058;-77
2021/01/28 10:12:31;;;;;;;12.93;4.40;;;4.20;99.90;;;;;;4961619;29;20046;-80
2021/01/28 10:15:05;;;;;;;7.57;4.20;;;4.30;99.90;;;;;;4960331;29;20296;-78
2021/01/28 10:17:42;;;;;;;16.52;5.13;;;4.30;99.90;;;;;;4945052;29;20368;-78
2021/01/28 10:20:22;;;;;;;11.93;3.90;;;4.30;99.90;;;;;;4946294;29;20047;-78
2021/01/28 10:22:51;;;;;;;14.00;4.55;;;4.30;99.90;;;;;;4959720;29;20419;-77
2021/01/28 10:25:20;;;;;;;10.25;4.28;;;4.30;99.90;;;;;;4926845;29;20387;-80
2021/01/28 10:27:49;;;;;;;11.80;4.35;;;4.30;99.90;;;;;;4959946;29;20050;-80
2021/01/28 10:30:19;;;;;;;9.60;3.95;;;4.30;99.90;;;;;;4941572;28;20526;-77
2021/01/28 10:32:58;;;;;;;6.78;3.65;;;4.30;99.90;;;;;;4958571;28;20066;-77
2021/01/28 10:35:31;;;;;;;11.23;4.23;;;4.30;99.90;;;;;;4967621;28;20054;-80
2021/01/28 10:38:00;;;;;;;8.47;4.10;;;4.30;99.90;;;;;;4950024;28;20047;-78
2021/01/28 10:40:30;;;;;;;10.10;4.53;;;4.40;99.90;;;;;;4958799;29;20059;-82
2021/01/28 10:42:59;;;;;;;10.37;4.53;;;4.40;99.90;;;;;;4959472;29;20055;-78
2021/01/28 10:45:31;;;;;;;10.70;4.10;;;4.40;99.90;;;;;;4960375;28;20078;-77
2021/01/28 10:48:02;;;;;;;8.63;3.77;;;4.40;99.90;;;;;;4944451;29;20052;-81
2021/01/28 10:50:31;;;;;;;7.83;3.57;;;4.40;99.90;;;;;;4959687;29;20058;-79
2021/01/28 10:53:01;;;;;;;11.90;3.97;;;4.40;99.90;;;;;;4959701;28;20063;-78
2021/01/28 10:55:31;;;;;;;10.68;3.65;;;4.40;99.90;;;;;;4958822;28;20086;-78
2021/01/28 10:57:59;;;;;;;9.53;3.73;;;4.40;99.90;;;;;;4942371;29;20435;-78
2021/01/28 11:00:28;;;;;;;12.82;4.22;;;4.40;99.90;;;;;;4958295;29;20399;-79
2021/01/28 11:02:57;;;;;;;10.45;3.72;;;4.50;99.90;;;;;;4960424;28;20055;-77
2021/01/28 11:05:28;;;;;;;7.50;3.40;;;4.50;99.90;;;;;;4962193;29;20062;-78
2021/01/28 11:07:56;;;;;;;10.52;3.55;;;4.40;99.90;;;;;;4962397;28;20741;-79
2021/01/28 11:10:33;;;;;;;10.47;4.07;;;4.50;99.90;;;;;;4960763;28;20066;-80
2021/01/28 11:13:03;;;;;;;7.50;3.53;;;4.50;99.90;;;;;;4944819;29;20713;-77
2021/01/28 11:15:36;;;;;;;9.20;4.03;;;4.50;99.90;;;;;;4961612;29;20055;-78
2021/01/28 11:18:09;;;;;;;8.30;3.40;;;4.40;99.90;;;;;;4962704;29;20047;-77
2021/01/28 11:20:42;;;;;;;8.63;3.53;;;4.50;99.90;;;;;;4948357;29;20052;-78
2021/01/28 11:23:09;;;;;;;8.05;3.85;;;4.50;99.90;;;;;;4946424;29;20066;-81
2021/01/28 11:25:37;;;;;;;11.00;3.90;;;4.50;99.90;;;;;;4960956;29;20059;-79
2021/01/28 11:28:05;;;;;;;6.50;3.00;;;4.50;99.90;;;;;;4960133;28;20043;-80
2021/01/28 11:30:36;;;;;;;8.82;3.70;;;4.50;99.90;;;;;;4968038;28;20046;-79
2021/01/28 11:33:06;;;;;;;8.70;3.55;;;4.50;99.90;;;;;;4949213;28;20046;-81
2021/01/28 11:35:36;;;;;;;7.43;3.55;;;4.60;99.90;;;;;;4961125;28;20686;-78
2021/01/28 11:38:07;;;;;;;8.70;3.42;;;4.60;99.90;;;;;;4958226;29;20475;-77
2021/01/28 11:40:44;;;;;;;10.45;4.13;;;4.70;99.90;;;;;;4940652;29;20066;-79
2021/01/28 11:43:12;;;;;;;7.82;3.65;;;4.70;99.90;;;;;;4951870;29;20047;-78
2021/01/28 11:45:59;;;;;;;8.35;4.15;;;4.60;99.90;;;;;;4945463;29;20039;-77
2021/01/28 11:48:28;;;;;;;12.32;4.75;;;4.60;99.90;;;;;;4959431;29;20047;-78
2021/01/28 11:50:56;;;;;;;11.03;3.63;;;4.60;99.90;;;;;;4959762;28;20401;-78
2021/01/28 11:53:24;;;;;;;10.75;3.78;;;4.60;99.90;;;;;;4960525;28;20070;-78
2021/01/28 11:55:51;;;;;;;7.50;3.05;;;4.70;99.90;;;;;;4959167;28;20055;-79
2021/01/28 11:58:19;;;;;;;11.07;3.47;;;4.70;99.90;;;;;;4942527;29;20070;-79
2021/01/28 12:00:49;;;;;;;8.65;3.10;;;4.60;99.90;;;;;;4959206;29;20051;-78
2021/01/28 12:03:17;;;;;;;10.85;4.07;;;4.70;99.90;;;;;;4959801;28;20066;-79
2021/01/28 12:05:45;;;;;;;7.38;3.50;;;4.60;99.90;;;;;;4960330;28;20391;-78
2021/01/28 12:08:13;;;;;;;7.18;3.35;;;4.60;99.90;;;;;;4960465;28;20071;-80
2021/01/28 12:10:45;;;;;;;6.97;3.30;;;4.60;99.90;;;;;;4944203;29;20475;-78
2021/01/28 12:13:13;;;;;;;7.80;3.92;;;4.50;99.90;;;;;;4959586;28;21709;-78
2021/01/28 12:15:41;;;;;;;8.05;3.45;;;4.40;99.90;;;;;;4958007;28;20059;-77
2021/01/28 12:18:11;;;;;;;12.13;4.00;;;4.40;99.90;;;;;;4958648;28;20489;-77
2021/01/28 12:20:38;;;;;;;8.03;3.50;;;4.30;99.90;;;;;;4943851;29;20478;-78
2021/01/28 12:23:11;;;;;;;7.87;3.50;;;4.30;99.90;;;;;;4959844;29;20059;-78
2021/01/28 12:25:38;;;;;;;8.93;4.03;;;4.30;99.90;;;;;;4944103;29;20055;-79
2021/01/28 12:28:09;;;;;;;9.73;3.70;;;4.30;99.90;;;;;;4960782;29;20055;-78
2021/01/28 12:30:36;;;;;;;8.05;3.95;;;4.30;99.90;;;;;;4959772;28;20347;-78
2021/01/28 12:33:04;;;;;;;10.13;4.03;;;4.30;99.90;;;;;;4959990;28;20390;-78
2021/01/28 12:35:31;;;;;;;9.90;3.55;;;4.30;99.90;;;;;;4961481;28;20406;-77
2021/01/28 12:38:02;;;;;;;9.07;3.40;;;4.30;99.90;;;;;;4964014;28;20047;-80
2021/01/28 12:40:30;;;;;;;10.90;3.80;;;4.30;99.90;;;;;;4940088;29;20062;-77
2021/01/28 12:43:00;;;;;;;10.73;3.93;;;4.30;99.90;;;;;;4959545;28;20055;-76
2021/01/28 12:45:28;;;;;;;7.25;4.07;;;4.30;99.90;;;;;;4956083;29;20066;-77
2021/01/28 12:47:59;;;;;;;11.88;4.63;;;4.40;99.90;;;;;;4948450;29;20051;-83
2021/01/28 12:50:27;;;;;;;12.25;4.35;;;4.30;99.90;;;;;;4957932;29;20508;-77
2021/01/28 12:52:55;;;;;;;9.35;4.55;;;4.30;99.90;;;;;;4958462;28;20080;-92
2021/01/28 12:55:23;;;;;;;8.63;4.40;;;4.40;99.90;;;;;;4960420;28;20062;-79
2021/01/28 12:57:51;;;;;;;16.95;4.35;;;4.50;99.90;;;;;;4939678;29;20047;-77
2021/01/28 13:00:23;;;;;;;8.73;4.60;;;4.50;99.90;;;;;;4939579;29;20392;-77
2021/01/28 13:02:51;;;;;;;9.55;4.07;;;4.40;99.90;;;;;;4923804;29;20477;-78
2021/01/28 13:05:19;;;;;;;9.50;4.55;;;4.50;99.90;;;;;;4942797;29;20051;-78
2021/01/28 13:07:47;;;;;;;13.43;4.40;;;4.40;99.90;;;;;;4955658;29;20054;-79
2021/01/28 13:10:19;;;;;;;8.97;4.93;;;4.40;99.90;;;;;;4954467;29;20058;-80
2021/01/28 13:12:47;;;;;;;9.10;4.55;;;4.50;99.90;;;;;;4962030;29;20297;-78
2021/01/28 13:15:18;;;;;;;13.18;4.47;;;4.60;99.90;;;;;;4930433;29;20050;-79
2021/01/28 13:17:45;;;;;;;12.77;4.88;;;4.50;99.90;;;;;;4959121;29;20043;-79
2021/01/28 13:20:19;;;;;;;15.57;5.95;;;4.60;99.90;;;;;;4954530;28;20372;-78
2021/01/28 13:22:51;;;;;;;11.77;4.75;;;4.60;99.90;;;;;;4956479;29;20078;-79
2021/01/28 13:25:20;;;;;;;12.02;5.68;;;4.60;99.90;;;;;;4954897;28;20395;-78
2021/01/28 13:27:51;;;;;;;14.15;5.53;;;4.70;99.90;;;;;;4955475;29;20047;-78
2021/01/28 13:30:22;;;;;;;16.27;5.55;;;4.80;99.90;;;;;;4955540;28;20403;-78
2021/01/28 13:32:50;;;;;;;15.38;6.63;;;4.70;99.90;;;;;;4956076;28;20376;-78
2021/01/28 13:35:22;;;;;;;12.95;5.57;;;4.70;99.90;;;;;;4955264;29;20059;-78
2021/01/28 13:37:51;;;;;;;11.07;5.10;;;4.80;99.90;;;;;;4939125;29;20062;-79
2021/01/28 13:40:23;;;;;;;16.30;5.00;;;4.80;99.90;;;;;;4955825;29;20051;-79
2021/01/28 13:42:55;;;;;;;10.85;4.63;;;4.70;99.90;;;;;;4956130;29;20062;-81
2021/01/28 13:45:27;;;;;;;13.43;4.88;;;4.80;99.90;;;;;;4955255;29;20059;-78
2021/01/28 13:47:58;;;;;;;8.45;4.60;;;4.80;99.90;;;;;;4955134;28;20055;-79
2021/01/28 13:50:28;;;;;;;;;;;4.80;99.90;;;;;;4955284;28;20383;-81